createdAt,value
2022-10-02T00:02:06.914Z,94823.22
2022-10-02T00:04:47.577Z,94814.59
2022-10-02T00:07:18.327Z,94817.00
2022-10-02T00:09:50.899Z,94820.41
2022-10-02T00:12:22.112Z,94810.56
2022-10-02T00:14:54.544Z,94804.34
2022-10-02T00:17:29.842Z,94814.59
2022-10-02T00:19:57.047Z,94807.56
2022-10-02T00:22:47.119Z,94805.38
2022-10-02T00:25:27.111Z,94818.41
2022-10-02T00:28:29.151Z,94824.44
2022-10-02T00:30:58.684Z,94823.84
2022-10-02T00:33:31.498Z,94821.84
2022-10-02T00:36:11.623Z,94832.28
2022-10-02T00:38:47.767Z,94833.91
2022-10-02T00:41:48.376Z,94836.50
2022-10-02T00:44:44.240Z,94839.13
2022-10-02T00:47:10.998Z,94844.72
2022-10-02T00:49:58.746Z,94840.91
2022-10-02T00:52:44.725Z,94860.38
2022-10-02T00:55:46.569Z,94856.53
2022-10-02T00:58:37.305Z,94853.13
2022-10-02T01:01:12.056Z,94854.31
2022-10-02T01:03:44.581Z,94851.91
2022-10-02T01:06:12.080Z,94853.72
2022-10-02T01:08:38.939Z,94850.53
2022-10-02T01:11:06.944Z,94855.13
2022-10-02T01:13:34.251Z,94865.94
2022-10-02T01:16:01.617Z,94861.09
2022-10-02T01:18:30.364Z,94865.72
2022-10-02T01:21:04.168Z,94866.09
2022-10-02T01:23:41.356Z,94871.69
2022-10-02T01:26:08.229Z,94873.09
2022-10-02T01:28:35.111Z,94867.41
2022-10-02T01:31:16.419Z,94878.88
2022-10-02T01:33:44.961Z,94885.47
2022-10-02T01:36:13.856Z,94888.66
2022-10-02T01:38:42.615Z,94890.06
2022-10-02T01:41:12.690Z,94895.66
2022-10-02T01:43:45.907Z,94902.66
2022-10-02T01:46:27.680Z,94903.81
2022-10-02T01:49:01.090Z,94905.44
2022-10-02T01:51:52.465Z,94899.78
2022-10-02T01:54:46.909Z,94908.41
2022-10-02T01:57:29.461Z,94902.97
2022-10-02T02:00:08.575Z,94907.38
2022-10-02T02:02:59.746Z,94901.75
2022-10-02T02:05:32.206Z,94901.31
2022-10-02T02:08:09.515Z,94906.47
2022-10-02T02:10:52.929Z,94905.59
2022-10-02T02:13:51.722Z,94914.19
2022-10-02T02:16:42.654Z,94922.03
2022-10-02T02:19:26.125Z,94933.81
2022-10-02T02:22:14.883Z,94935.72
2022-10-02T02:24:52.511Z,94945.53
2022-10-02T02:27:24.720Z,94947.53
2022-10-02T02:29:55.570Z,94950.31
2022-10-02T02:32:28.281Z,94949.88
2022-10-02T02:35:02.051Z,94952.66
2022-10-02T02:37:34.125Z,94950.69
2022-10-02T02:40:03.489Z,94955.97
2022-10-02T02:42:35.932Z,94962.56
2022-10-02T02:45:14.717Z,94950.94
2022-10-02T02:48:06.377Z,94948.72
2022-10-02T02:50:41.468Z,94968.00
2022-10-02T02:53:16.687Z,94984.84
2022-10-02T02:55:58.409Z,94982.06
2022-10-02T02:58:32.016Z,94984.66
2022-10-02T03:00:59.127Z,94986.47
2022-10-02T03:03:26.948Z,94999.75
2022-10-02T03:06:15.500Z,95003.34
2022-10-02T03:08:43.759Z,95013.94
2022-10-02T03:11:22.106Z,95017.16
2022-10-02T03:14:19.551Z,95009.34
2022-10-02T03:17:04.796Z,95019.34
2022-10-02T03:19:48.010Z,95019.97
2022-10-02T03:22:56.133Z,95016.09
2022-10-02T03:25:37.336Z,95034.97
2022-10-02T03:28:12.393Z,95048.78
2022-10-02T03:30:41.732Z,95037.53
2022-10-02T03:33:10.676Z,95043.53
2022-10-02T03:35:38.357Z,95038.06
2022-10-02T03:38:07.991Z,95037.63
2022-10-02T03:40:34.832Z,95036.81
2022-10-02T03:43:01.895Z,95032.50
2022-10-02T03:45:49.973Z,95046.44
2022-10-02T03:48:17.104Z,95055.66
2022-10-02T03:50:44.548Z,95056.94
2022-10-02T03:53:17.545Z,95040.03
2022-10-02T03:55:49.890Z,95042.28
2022-10-02T03:58:18.699Z,95054.31
2022-10-02T04:01:04.638Z,95071.75
2022-10-02T04:03:37.684Z,95070.03
2022-10-02T04:06:36.070Z,95081.28
2022-10-02T04:09:12.092Z,95080.00
2022-10-02T04:11:48.497Z,95094.41
2022-10-02T04:14:46.120Z,95096.38
2022-10-02T04:17:20.725Z,95100.97
2022-10-02T04:19:59.642Z,95111.91
2022-10-02T04:22:52.986Z,95111.56
2022-10-02T04:25:27.956Z,95096.22
2022-10-02T04:28:02.301Z,95110.75
2022-10-02T04:30:30.344Z,95104.91
2022-10-02T04:33:06.723Z,95102.75
2022-10-02T04:35:44.929Z,95106.81
2022-10-02T04:38:17.542Z,95111.28
2022-10-02T04:41:04.573Z,95120.47
2022-10-02T04:43:52.581Z,95115.84
2022-10-02T04:46:37.872Z,95134.69
2022-10-02T04:49:07.617Z,95136.78
2022-10-02T04:52:29.814Z,95155.63
2022-10-02T04:55:20.720Z,95163.09
2022-10-02T04:58:24.385Z,95159.94
2022-10-02T05:01:40.258Z,95148.28
2022-10-02T05:04:34.668Z,95161.97
2022-10-02T05:07:33.635Z,95167.91
2022-10-02T05:10:37.296Z,95158.56
2022-10-02T05:13:28.117Z,95170.66
2022-10-02T05:16:12.931Z,95178.75
2022-10-02T05:18:58.146Z,95184.78
2022-10-02T05:21:34.250Z,95184.22
2022-10-02T05:24:30.333Z,95186.44
2022-10-02T05:27:15.825Z,95173.41
2022-10-02T05:29:42.550Z,95176.81
2022-10-02T05:32:22.564Z,95170.44
2022-10-02T05:35:26.429Z,95174.13
2022-10-02T05:37:53.167Z,95155.34
2022-10-02T05:40:34.140Z,95171.03
2022-10-02T05:43:22.644Z,95173.25
2022-10-02T05:45:57.008Z,95185.66
2022-10-02T05:48:38.629Z,95182.59
2022-10-02T05:51:24.079Z,95195.16
2022-10-02T05:53:58.185Z,95208.81
2022-10-02T05:56:32.607Z,95210.97
2022-10-02T05:59:08.491Z,95218.97
2022-10-02T06:01:41.430Z,95220.22
2022-10-02T06:04:33.942Z,95212.31
2022-10-02T06:07:07.452Z,95216.19
2022-10-02T06:09:40.631Z,95215.38
2022-10-02T06:12:21.153Z,95215.38
2022-10-02T06:15:17.188Z,95221.22
2022-10-02T06:17:53.732Z,95228.22
2022-10-02T06:21:01.739Z,95238.22
2022-10-02T06:23:36.119Z,95246.38
2022-10-02T06:26:07.363Z,95256.56
2022-10-02T06:28:48.945Z,95258.91
2022-10-02T06:31:41.729Z,95255.13
2022-10-02T06:34:12.473Z,95255.13
2022-10-02T06:36:48.684Z,95264.91
2022-10-02T06:39:33.096Z,95266.97
2022-10-02T06:42:08.674Z,95253.31
2022-10-02T06:44:47.700Z,95277.94
2022-10-02T06:47:17.587Z,95256.94
2022-10-02T06:50:03.550Z,95270.88
2022-10-02T06:52:43.879Z,95274.97
2022-10-02T06:55:40.961Z,95291.38
2022-10-02T06:58:35.162Z,95269.00
2022-10-02T07:01:10.968Z,95303.09
2022-10-02T07:03:47.285Z,95310.56
2022-10-02T07:06:26.531Z,95293.06
2022-10-02T07:09:14.046Z,95311.88
2022-10-02T07:11:55.364Z,95311.16
2022-10-02T07:14:28.149Z,95314.66
2022-10-02T07:17:03.136Z,95315.50
2022-10-02T07:19:45.065Z,95314.78
2022-10-02T07:22:39.635Z,95319.25
2022-10-02T07:25:07.292Z,95321.72
2022-10-02T07:27:55.325Z,95319.03
2022-10-02T07:30:22.323Z,95304.78
2022-10-02T07:32:55.479Z,95304.31
2022-10-02T07:35:59.428Z,95320.34
2022-10-02T07:39:07.523Z,95326.72
2022-10-02T07:41:59.561Z,95317.13
2022-10-02T07:44:35.337Z,95315.50
2022-10-02T07:47:26.827Z,95326.22
2022-10-02T07:50:18.104Z,95317.50
2022-10-02T07:52:50.669Z,95335.66
2022-10-02T07:55:22.516Z,95333.44
2022-10-02T07:58:22.000Z,95339.09
2022-10-02T08:00:53.938Z,95347.59
2022-10-02T08:03:28.252Z,95346.59
2022-10-02T08:05:56.714Z,95359.28
2022-10-02T08:08:30.074Z,95368.75
2022-10-02T08:11:08.456Z,95357.75
2022-10-02T08:13:46.115Z,95361.59
2022-10-02T08:16:16.615Z,95367.50
2022-10-02T08:18:48.889Z,95367.28
2022-10-02T08:21:20.382Z,95362.56
2022-10-02T08:23:59.808Z,95355.09
2022-10-02T08:26:52.563Z,95356.50
2022-10-02T08:29:41.696Z,95355.97
2022-10-02T08:32:13.818Z,95346.13
2022-10-02T08:34:42.138Z,95346.13
2022-10-02T08:37:29.557Z,95331.72
2022-10-02T08:40:17.971Z,95343.88
2022-10-02T08:42:50.587Z,95336.44
2022-10-02T08:45:35.390Z,95328.84
2022-10-02T08:48:23.453Z,95338.97
2022-10-02T08:51:11.542Z,95330.34
2022-10-02T08:53:44.497Z,95337.19
2022-10-02T08:56:38.939Z,95322.28
2022-10-02T08:59:24.045Z,95332.16
2022-10-02T09:02:28.276Z,95332.56
2022-10-02T09:05:01.167Z,95334.44
2022-10-02T09:08:16.056Z,95330.84
2022-10-02T09:10:51.982Z,95319.13
2022-10-02T09:13:33.670Z,95319.94
2022-10-02T09:16:17.863Z,95322.16
2022-10-02T09:19:03.088Z,95332.09
2022-10-02T09:21:44.997Z,95327.63
2022-10-02T09:24:43.627Z,95306.44
2022-10-02T09:27:31.789Z,95297.41
2022-10-02T09:30:21.644Z,95316.94
2022-10-02T09:33:17.118Z,95325.78
2022-10-02T09:35:49.934Z,95316.69
2022-10-02T09:38:58.201Z,95332.88
2022-10-02T09:42:09.224Z,95332.06
2022-10-02T09:45:18.228Z,95324.81
2022-10-02T09:48:32.081Z,95305.44
2022-10-02T09:51:27.598Z,95328.00
2022-10-02T09:54:21.548Z,95315.91
2022-10-02T09:57:13.208Z,95324.59
2022-10-02T09:59:48.706Z,95313.06
2022-10-02T10:02:15.490Z,95325.13
2022-10-02T10:05:09.004Z,95304.16
2022-10-02T10:07:41.968Z,95314.28
2022-10-02T10:10:53.509Z,95323.56
2022-10-02T10:13:41.892Z,95314.06
2022-10-02T10:16:34.193Z,95330.16
2022-10-02T10:19:15.966Z,95307.69
2022-10-02T10:21:51.467Z,95319.03
2022-10-02T10:24:45.502Z,95322.88
2022-10-02T10:27:33.222Z,95332.53
2022-10-02T10:30:08.962Z,95325.03
2022-10-02T10:33:13.166Z,95344.22
2022-10-02T10:36:07.685Z,95321.47
2022-10-02T10:38:49.706Z,95310.50
2022-10-02T10:41:38.149Z,95314.16
2022-10-02T10:44:52.564Z,95310.09
2022-10-02T10:48:12.074Z,95289.16
2022-10-02T10:51:16.892Z,95304.84
2022-10-02T10:53:46.639Z,95296.69
2022-10-02T10:56:34.904Z,95290.16
2022-10-02T10:59:42.536Z,95295.53
2022-10-02T11:02:27.578Z,95302.28
2022-10-02T11:05:16.826Z,95284.94
2022-10-02T11:07:44.576Z,95284.09
2022-10-02T11:10:38.717Z,95290.81
2022-10-02T11:13:23.904Z,95286.22
2022-10-02T11:16:25.189Z,95266.25
2022-10-02T11:19:17.935Z,95280.31
2022-10-02T11:21:58.361Z,95264.56
2022-10-02T11:24:37.131Z,95274.41
2022-10-02T11:27:12.131Z,95280.06
2022-10-02T11:30:10.191Z,95275.72
2022-10-02T11:32:39.601Z,95272.44
2022-10-02T11:35:12.366Z,95266.91
2022-10-02T11:38:04.384Z,95276.41
2022-10-02T11:40:41.861Z,95279.31
2022-10-02T11:43:39.436Z,95284.72
2022-10-02T11:46:36.604Z,95283.66
2022-10-02T11:49:42.452Z,95297.88
2022-10-02T11:52:48.443Z,95304.00
2022-10-02T11:55:24.019Z,95286.88
2022-10-02T11:58:05.249Z,95288.66
2022-10-02T12:00:56.624Z,95296.84
2022-10-02T12:03:45.104Z,95292.25
2022-10-02T12:06:26.182Z,95294.25
2022-10-02T12:09:09.660Z,95288.16
2022-10-02T12:11:50.218Z,95291.25
2022-10-02T12:14:43.913Z,95294.81
2022-10-02T12:17:25.917Z,95302.44
2022-10-02T12:20:58.884Z,95290.31
2022-10-02T12:23:43.781Z,95276.53
2022-10-02T12:26:54.239Z,95293.75
2022-10-02T12:29:29.855Z,95286.50
2022-10-02T12:32:19.152Z,95288.22
2022-10-02T12:34:57.816Z,95294.50
2022-10-02T12:37:27.588Z,95273.69
2022-10-02T12:40:13.096Z,95276.19
2022-10-02T12:42:54.406Z,95277.72
2022-10-02T12:45:44.448Z,95282.00
2022-10-02T12:48:26.355Z,95298.75
2022-10-02T12:50:53.236Z,95288.84
2022-10-02T12:53:49.940Z,95284.84
2022-10-02T12:56:16.779Z,95277.78
2022-10-02T12:59:14.700Z,95279.69
2022-10-02T13:02:05.807Z,95277.16
2022-10-02T13:05:05.473Z,95289.72
2022-10-02T13:08:01.580Z,95287.34
2022-10-02T13:10:38.124Z,95288.75
2022-10-02T13:13:20.175Z,95297.75
2022-10-02T13:16:28.100Z,95289.97
2022-10-02T13:19:12.603Z,95290.63
2022-10-02T13:22:11.085Z,95307.88
2022-10-02T13:24:50.169Z,95295.91
2022-10-02T13:27:31.903Z,95302.81
2022-10-02T13:30:05.889Z,95307.56
2022-10-02T13:32:54.507Z,95301.09
2022-10-02T13:35:45.904Z,95294.31
2022-10-02T13:38:30.846Z,95304.31
2022-10-02T13:41:25.276Z,95311.53
2022-10-02T13:44:07.788Z,95309.31
2022-10-02T13:46:37.574Z,95308.66
2022-10-02T13:49:22.561Z,95304.03
2022-10-02T13:52:36.609Z,95298.19
2022-10-02T13:55:21.885Z,95299.75
2022-10-02T13:58:06.483Z,95297.69
2022-10-02T14:00:56.456Z,95292.00
2022-10-02T14:04:05.023Z,95288.84
2022-10-02T14:06:38.873Z,95292.75
2022-10-02T14:09:14.480Z,95287.03
2022-10-02T14:11:44.108Z,95277.50
2022-10-02T14:14:29.801Z,95281.63
2022-10-02T14:17:35.178Z,95280.28
2022-10-02T14:20:58.850Z,95270.06
2022-10-02T14:23:50.417Z,95268.59
2022-10-02T14:26:25.782Z,95261.22
2022-10-02T14:28:55.181Z,95268.28
2022-10-02T14:31:46.790Z,95263.34
2022-10-02T14:34:36.938Z,95262.03
2022-10-02T14:37:36.220Z,95253.31
2022-10-02T14:40:13.075Z,95251.94
2022-10-02T14:43:00.605Z,95252.50
2022-10-02T14:45:52.013Z,95262.94
2022-10-02T14:48:42.509Z,95256.81
2022-10-02T14:51:18.134Z,95256.34
2022-10-02T14:54:03.191Z,95245.06
2022-10-02T14:56:32.885Z,95246.72
2022-10-02T14:59:11.464Z,95250.97
2022-10-02T15:01:45.497Z,95256.16
2022-10-02T15:04:30.355Z,95263.09
2022-10-02T15:07:03.996Z,95258.41
2022-10-02T15:09:54.448Z,95258.63
2022-10-02T15:12:36.524Z,95264.63
2022-10-02T15:15:11.985Z,95244.19
2022-10-02T15:18:17.391Z,95272.16
2022-10-02T15:21:15.483Z,95257.06
2022-10-02T15:23:50.745Z,95259.88
2022-10-02T15:26:26.497Z,95263.75
2022-10-02T15:29:07.356Z,95252.66
2022-10-02T15:31:49.172Z,95253.25
2022-10-02T15:34:24.755Z,95259.06
2022-10-02T15:37:23.286Z,95265.94
2022-10-02T15:39:53.162Z,95271.78
2022-10-02T15:42:40.145Z,95274.78
2022-10-02T15:45:27.866Z,95277.56
2022-10-02T15:48:10.247Z,95274.09
2022-10-02T15:50:58.124Z,95267.63
2022-10-02T15:53:43.199Z,95276.28
2022-10-02T15:56:28.113Z,95264.94
2022-10-02T15:59:16.636Z,95267.72
2022-10-02T16:02:01.425Z,95269.69
2022-10-02T16:04:49.759Z,95271.47
2022-10-02T16:07:45.300Z,95265.44
2022-10-02T16:10:26.825Z,95261.34
2022-10-02T16:13:12.638Z,95267.94
2022-10-02T16:15:47.655Z,95267.13
2022-10-02T16:18:20.386Z,95267.50
2022-10-02T16:21:22.764Z,95266.66
2022-10-02T16:24:12.599Z,95262.41
2022-10-02T16:27:07.603Z,95267.75
2022-10-02T16:29:59.620Z,95261.50
2022-10-02T16:32:37.230Z,95265.13
2022-10-02T16:35:20.144Z,95264.06
2022-10-02T16:37:55.200Z,95258.78
2022-10-02T16:40:27.068Z,95261.78
2022-10-02T16:43:12.964Z,95254.06
2022-10-02T16:45:49.010Z,95262.66
2022-10-02T16:48:22.005Z,95253.34
2022-10-02T16:51:10.526Z,95262.56
2022-10-02T16:54:14.357Z,95259.31
2022-10-02T16:56:41.180Z,95255.72
2022-10-02T16:59:19.035Z,95252.41
2022-10-02T17:02:16.015Z,95245.56
2022-10-02T17:04:50.274Z,95238.34
2022-10-02T17:07:41.720Z,95250.59
2022-10-02T17:10:22.124Z,95255.47
2022-10-02T17:13:07.453Z,95257.69
2022-10-02T17:15:51.707Z,95251.47
2022-10-02T17:18:24.695Z,95257.31
2022-10-02T17:21:01.314Z,95256.34
2022-10-02T17:23:34.034Z,95253.97
2022-10-02T17:26:31.906Z,95255.38
2022-10-02T17:29:12.584Z,95249.56
2022-10-02T17:31:53.356Z,95254.78
2022-10-02T17:34:27.973Z,95251.13
2022-10-02T17:37:07.179Z,95248.88
2022-10-02T17:39:43.122Z,95244.03
2022-10-02T17:42:28.678Z,95254.03
2022-10-02T17:45:04.868Z,95240.13
2022-10-02T17:47:54.559Z,95248.41
2022-10-02T17:51:00.082Z,95245.53
2022-10-02T17:54:04.569Z,95247.09
2022-10-02T17:56:50.871Z,95252.75
2022-10-02T17:59:51.473Z,95248.50
2022-10-02T18:02:34.084Z,95257.78
2022-10-02T18:05:19.213Z,95254.34
2022-10-02T18:08:05.117Z,95254.81
2022-10-02T18:11:30.590Z,95251.59
2022-10-02T18:14:13.685Z,95237.34
2022-10-02T18:17:21.146Z,95248.88
2022-10-02T18:20:10.581Z,95240.84
2022-10-02T18:22:58.652Z,95240.09
2022-10-02T18:25:31.665Z,95235.69
2022-10-02T18:28:11.443Z,95227.88
2022-10-02T18:31:03.045Z,95228.22
2022-10-02T18:34:06.818Z,95231.41
2022-10-02T18:36:50.787Z,95229.72
2022-10-02T18:39:37.253Z,95235.91
2022-10-02T18:42:30.041Z,95240.69
2022-10-02T18:45:40.754Z,95235.41
2022-10-02T18:48:41.948Z,95228.97
2022-10-02T18:51:34.580Z,95229.31
2022-10-02T18:54:23.071Z,95227.28
2022-10-02T18:57:07.902Z,95228.63
2022-10-02T19:00:02.627Z,95236.81
2022-10-02T19:03:20.054Z,95239.81
2022-10-02T19:06:06.081Z,95238.22
2022-10-02T19:09:05.691Z,95234.53
2022-10-02T19:11:36.313Z,95235.09
2022-10-02T19:14:15.033Z,95236.44
2022-10-02T19:16:59.330Z,95232.22
2022-10-02T19:19:28.483Z,95241.44
2022-10-02T19:22:13.002Z,95238.91
2022-10-02T19:24:42.475Z,95243.88
2022-10-02T19:27:19.371Z,95236.41
2022-10-02T19:29:54.546Z,95242.56
2022-10-02T19:32:30.785Z,95245.66
2022-10-02T19:35:08.474Z,95239.38
2022-10-02T19:37:41.730Z,95242.72
2022-10-02T19:40:15.969Z,95244.88
2022-10-02T19:42:55.607Z,95239.22
2022-10-02T19:45:27.004Z,95245.97
2022-10-02T19:47:59.874Z,95242.75
2022-10-02T19:50:37.959Z,95242.31
2022-10-02T19:53:16.708Z,95235.38
2022-10-02T19:55:44.578Z,95234.38
2022-10-02T19:58:20.630Z,95233.31
2022-10-02T20:00:50.914Z,95225.44
2022-10-02T20:03:21.215Z,95225.78
2022-10-02T20:05:53.146Z,95235.09
2022-10-02T20:08:25.893Z,95229.19
2022-10-02T20:11:01.883Z,95230.25
2022-10-02T20:13:44.677Z,95224.75
2022-10-02T20:16:41.933Z,95217.69
2022-10-02T20:19:18.285Z,95208.25
2022-10-02T20:21:49.724Z,95215.44
2022-10-02T20:24:58.535Z,95224.22
2022-10-02T20:27:34.979Z,95214.97
2022-10-02T20:30:11.268Z,95225.38
2022-10-02T20:32:45.412Z,95224.56
2022-10-02T20:35:45.363Z,95227.88
2022-10-02T20:38:47.034Z,95224.03
2022-10-02T20:41:25.618Z,95234.22
2022-10-02T20:44:02.330Z,95224.38
2022-10-02T20:46:47.393Z,95227.31
2022-10-02T20:49:23.066Z,95218.25
2022-10-02T20:52:27.135Z,95211.97
2022-10-02T20:55:07.342Z,95210.69
2022-10-02T20:58:09.550Z,95205.03
2022-10-02T21:01:04.332Z,95202.34
2022-10-02T21:03:40.939Z,95199.44
2022-10-02T21:06:22.672Z,95206.94
2022-10-02T21:09:09.160Z,95206.94
2022-10-02T21:11:54.499Z,95206.31
2022-10-02T21:14:30.008Z,95207.28
2022-10-02T21:17:30.734Z,95200.81
2022-10-02T21:20:06.560Z,95205.09
2022-10-02T21:22:59.345Z,95191.00
2022-10-02T21:26:04.064Z,95196.09
2022-10-02T21:28:49.041Z,95189.94
2022-10-02T21:31:56.571Z,95190.50
2022-10-02T21:34:35.302Z,95198.66
2022-10-02T21:37:13.154Z,95200.13
2022-10-02T21:39:55.261Z,95194.63
2022-10-02T21:42:42.028Z,95196.13
2022-10-02T21:46:03.214Z,95185.59
2022-10-02T21:48:56.407Z,95181.25
2022-10-02T21:51:41.642Z,95187.06
2022-10-02T21:54:35.876Z,95181.06
2022-10-02T21:57:05.271Z,95187.06
2022-10-02T22:00:07.256Z,95180.78
2022-10-02T22:03:19.118Z,95180.16
2022-10-02T22:06:15.020Z,95178.09
2022-10-02T22:08:44.583Z,95181.06
2022-10-02T22:11:24.937Z,95173.44
2022-10-02T22:13:57.990Z,95167.13
2022-10-02T22:16:36.963Z,95173.13
2022-10-02T22:19:25.377Z,95169.06
2022-10-02T22:22:13.205Z,95174.59
2022-10-02T22:24:48.862Z,95166.63
2022-10-02T22:27:37.289Z,95160.03
2022-10-02T22:30:05.275Z,95152.72
2022-10-02T22:33:13.318Z,95170.09
2022-10-02T22:36:04.842Z,95161.88
2022-10-02T22:38:31.579Z,95169.63
2022-10-02T22:41:02.585Z,95161.84
2022-10-02T22:43:32.164Z,95178.88
2022-10-02T22:46:16.376Z,95164.47
2022-10-02T22:48:49.264Z,95156.38
2022-10-02T22:51:25.274Z,95173.84
2022-10-02T22:54:14.295Z,95168.50
2022-10-02T22:56:51.449Z,95158.47
2022-10-02T22:59:38.067Z,95155.38
2022-10-02T23:02:35.119Z,95164.13
2022-10-02T23:05:17.403Z,95152.81
2022-10-02T23:07:56.063Z,95142.75
2022-10-02T23:10:37.958Z,95144.38
2022-10-02T23:13:11.739Z,95140.50
2022-10-02T23:16:04.163Z,95145.69
2022-10-02T23:18:40.034Z,95139.84
2022-10-02T23:21:25.231Z,95130.13
2022-10-02T23:24:02.561Z,95130.44
2022-10-02T23:26:41.540Z,95128.19
2022-10-02T23:29:26.653Z,95132.06
2022-10-02T23:32:24.355Z,95122.66
2022-10-02T23:34:54.265Z,95121.53
2022-10-02T23:37:53.181Z,95117.03
2022-10-02T23:40:47.676Z,95108.44
2022-10-02T23:43:38.708Z,95113.13
2022-10-02T23:46:18.100Z,95111.19
2022-10-02T23:48:45.683Z,95112.97
2022-10-02T23:51:32.530Z,95111.03
2022-10-02T23:54:21.133Z,95105.69
2022-10-02T23:57:14.954Z,95094.34
2022-10-02T23:59:58.602Z,95082.03
